sensor_id;sensor_type;location;lat;lon;timestamp;P1;durP1;ratioP1;P2;durP2;ratioP2
35797;SDS011;21918;49.940;7.774;2023-08-06T00:00:12;4.10;;;2.95;;
35797;SDS011;21918;49.940;7.774;2023-08-06T00:02:39;2.20;;;2.10;;
35797;SDS011;21918;49.940;7.774;2023-08-06T00:05:06;3.95;;;2.28;;
35797;SDS011;21918;49.940;7.774;2023-08-06T00:07:33;2.38;;;2.20;;
35797;SDS011;21918;49.940;7.774;2023-08-06T00:10:00;2.22;;;2.03;;
35797;SDS011;21918;49.940;7.774;2023-08-06T00:12:28;2.65;;;2.45;;
35797;SDS011;21918;49.940;7.774;2023-08-06T00:14:54;2.55;;;2.35;;
35797;SDS011;21918;49.940;7.774;2023-08-06T00:17:21;1.98;;;1.88;;
35797;SDS011;21918;49.940;7.774;2023-08-06T00:19:47;2.03;;;1.80;;
35797;SDS011;21918;49.940;7.774;2023-08-06T00:22:14;2.67;;;2.33;;
35797;SDS011;21918;49.940;7.774;2023-08-06T00:24:41;2.72;;;2.42;;
35797;SDS011;21918;49.940;7.774;2023-08-06T00:27:07;2.45;;;2.15;;
35797;SDS011;21918;49.940;7.774;2023-08-06T00:29:36;2.75;;;2.55;;
35797;SDS011;21918;49.940;7.774;2023-08-06T00:32:02;2.10;;;1.98;;
35797;SDS011;21918;49.940;7.774;2023-08-06T00:34:29;4.60;;;2.22;;
35797;SDS011;21918;49.940;7.774;2023-08-06T00:36:56;2.50;;;2.30;;
35797;SDS011;21918;49.940;7.774;2023-08-06T00:39:23;3.20;;;2.13;;
35797;SDS011;21918;49.940;7.774;2023-08-06T00:41:49;2.78;;;2.45;;
35797;SDS011;21918;49.940;7.774;2023-08-06T00:44:16;6.97;;;2.55;;
35797;SDS011;21918;49.940;7.774;2023-08-06T01:12:32;4.93;;;2.38;;
35797;SDS011;21918;49.940;7.774;2023-08-06T01:15:05;4.07;;;2.70;;
35797;SDS011;21918;49.940;7.774;2023-08-06T01:17:37;3.13;;;2.65;;
35797;SDS011;21918;49.940;7.774;2023-08-06T01:20:05;4.57;;;2.80;;
35797;SDS011;21918;49.940;7.774;2023-08-06T01:22:34;2.97;;;2.25;;
35797;SDS011;21918;49.940;7.774;2023-08-06T01:25:00;6.07;;;2.67;;
35797;SDS011;21918;49.940;7.774;2023-08-06T01:27:28;2.10;;;1.98;;
35797;SDS011;21918;49.940;7.774;2023-08-06T01:30:02;3.45;;;2.88;;
35797;SDS011;21918;49.940;7.774;2023-08-06T01:32:34;3.17;;;2.83;;
35797;SDS011;21918;49.940;7.774;2023-08-06T01:35:02;2.78;;;2.45;;
35797;SDS011;21918;49.940;7.774;2023-08-06T01:37:30;2.72;;;2.33;;
35797;SDS011;21918;49.940;7.774;2023-08-06T01:39:59;3.90;;;2.20;;
35797;SDS011;21918;49.940;7.774;2023-08-06T01:42:25;2.28;;;2.08;;
35797;SDS011;21918;49.940;7.774;2023-08-06T01:44:52;3.65;;;2.40;;
35797;SDS011;21918;49.940;7.774;2023-08-06T01:47:19;2.92;;;2.72;;
35797;SDS011;21918;49.940;7.774;2023-08-06T01:49:45;2.22;;;2.03;;
35797;SDS011;21918;49.940;7.774;2023-08-06T01:52:13;1.90;;;1.80;;
35797;SDS011;21918;49.940;7.774;2023-08-06T01:54:39;3.42;;;2.30;;
35797;SDS011;21918;49.940;7.774;2023-08-06T01:57:07;4.72;;;2.38;;
35797;SDS011;21918;49.940;7.774;2023-08-06T01:59:34;2.58;;;2.38;;
35797;SDS011;21918;49.940;7.774;2023-08-06T02:02:03;2.25;;;1.88;;
35797;SDS011;21918;49.940;7.774;2023-08-06T02:04:30;2.65;;;2.10;;
35797;SDS011;21918;49.940;7.774;2023-08-06T02:06:57;2.08;;;1.95;;
35797;SDS011;21918;49.940;7.774;2023-08-06T02:09:23;2.15;;;1.75;;
35797;SDS011;21918;49.940;7.774;2023-08-06T02:11:50;2.22;;;1.60;;
35797;SDS011;21918;49.940;7.774;2023-08-06T02:14:18;1.85;;;1.73;;
35797;SDS011;21918;49.940;7.774;2023-08-06T02:16:47;2.17;;;1.90;;
35797;SDS011;21918;49.940;7.774;2023-08-06T02:19:14;3.80;;;2.42;;
35797;SDS011;21918;49.940;7.774;2023-08-06T02:21:44;2.15;;;1.95;;
35797;SDS011;21918;49.940;7.774;2023-08-06T02:24:13;2.47;;;2.28;;
35797;SDS011;21918;49.940;7.774;2023-08-06T02:26:40;4.13;;;1.77;;
35797;SDS011;21918;49.940;7.774;2023-08-06T02:29:06;2.78;;;2.00;;
35797;SDS011;21918;49.940;7.774;2023-08-06T02:31:34;2.67;;;2.13;;
35797;SDS011;21918;49.940;7.774;2023-08-06T02:34:01;3.58;;;1.80;;
35797;SDS011;21918;49.940;7.774;2023-08-06T02:36:32;5.78;;;2.15;;
35797;SDS011;21918;49.940;7.774;2023-08-06T02:38:58;2.03;;;1.73;;
35797;SDS011;21918;49.940;7.774;2023-08-06T02:41:25;2.10;;;2.00;;
35797;SDS011;21918;49.940;7.774;2023-08-06T02:43:55;2.10;;;1.90;;
35797;SDS011;21918;49.940;7.774;2023-08-06T02:46:21;3.72;;;1.90;;
35797;SDS011;21918;49.940;7.774;2023-08-06T02:48:49;3.10;;;1.67;;
35797;SDS011;21918;49.940;7.774;2023-08-06T02:51:16;2.33;;;2.15;;
35797;SDS011;21918;49.940;7.774;2023-08-06T02:53:42;1.90;;;1.73;;
35797;SDS011;21918;49.940;7.774;2023-08-06T02:56:13;2.80;;;1.92;;
35797;SDS011;21918;49.940;7.774;2023-08-06T03:01:16;2.30;;;2.00;;
35797;SDS011;21918;49.940;7.774;2023-08-06T03:03:43;2.85;;;2.30;;
35797;SDS011;21918;49.940;7.774;2023-08-06T03:06:11;2.75;;;1.77;;
35797;SDS011;21918;49.940;7.774;2023-08-06T03:08:38;1.73;;;1.63;;
35797;SDS011;21918;49.940;7.774;2023-08-06T03:11:04;1.90;;;1.75;;
35797;SDS011;21918;49.940;7.774;2023-08-06T03:13:31;2.50;;;1.80;;
35797;SDS011;21918;49.940;7.774;2023-08-06T03:15:58;2.60;;;1.98;;
35797;SDS011;21918;49.940;7.774;2023-08-06T03:18:25;1.85;;;1.70;;
35797;SDS011;21918;49.940;7.774;2023-08-06T03:20:52;1.73;;;1.63;;
35797;SDS011;21918;49.940;7.774;2023-08-06T03:23:20;2.25;;;1.90;;
35797;SDS011;21918;49.940;7.774;2023-08-06T03:25:47;2.47;;;2.28;;
35797;SDS011;21918;49.940;7.774;2023-08-06T03:28:16;1.88;;;1.55;;
35797;SDS011;21918;49.940;7.774;2023-08-06T03:30:42;2.65;;;2.25;;
35797;SDS011;21918;49.940;7.774;2023-08-06T03:33:09;3.38;;;2.13;;
35797;SDS011;21918;49.940;7.774;2023-08-06T03:35:36;2.65;;;2.30;;
35797;SDS011;21918;49.940;7.774;2023-08-06T03:38:02;3.28;;;2.55;;
35797;SDS011;21918;49.940;7.774;2023-08-06T03:40:30;2.42;;;2.03;;
35797;SDS011;21918;49.940;7.774;2023-08-06T03:42:57;3.35;;;2.28;;
35797;SDS011;21918;49.940;7.774;2023-08-06T03:45:24;2.83;;;2.20;;
35797;SDS011;21918;49.940;7.774;2023-08-06T03:47:50;4.35;;;2.20;;
35797;SDS011;21918;49.940;7.774;2023-08-06T03:50:17;4.07;;;2.08;;
35797;SDS011;21918;49.940;7.774;2023-08-06T03:53:00;2.22;;;1.92;;
35797;SDS011;21918;49.940;7.774;2023-08-06T03:55:27;2.35;;;1.95;;
35797;SDS011;21918;49.940;7.774;2023-08-06T03:57:55;2.78;;;2.13;;
35797;SDS011;21918;49.940;7.774;2023-08-06T04:00:22;2.40;;;2.13;;
35797;SDS011;21918;49.940;7.774;2023-08-06T04:02:48;2.90;;;2.03;;
35797;SDS011;21918;49.940;7.774;2023-08-06T04:05:15;2.50;;;1.67;;
35797;SDS011;21918;49.940;7.774;2023-08-06T04:07:49;2.30;;;1.92;;
35797;SDS011;21918;49.940;7.774;2023-08-06T04:10:15;2.55;;;1.98;;
35797;SDS011;21918;49.940;7.774;2023-08-06T04:12:42;3.47;;;2.33;;
35797;SDS011;21918;49.940;7.774;2023-08-06T04:15:10;3.20;;;2.33;;
35797;SDS011;21918;49.940;7.774;2023-08-06T04:17:37;3.58;;;2.58;;
35797;SDS011;21918;49.940;7.774;2023-08-06T04:20:04;2.83;;;2.33;;
35797;SDS011;21918;49.940;7.774;2023-08-06T04:22:32;2.17;;;2.03;;
35797;SDS011;21918;49.940;7.774;2023-08-06T04:24:58;3.28;;;2.33;;
35797;SDS011;21918;49.940;7.774;2023-08-06T04:27:25;3.20;;;2.30;;
35797;SDS011;21918;49.940;7.774;2023-08-06T04:29:52;2.97;;;2.10;;
35797;SDS011;21918;49.940;7.774;2023-08-06T04:32:20;2.72;;;1.90;;
35797;SDS011;21918;49.940;7.774;2023-08-06T04:34:46;4.90;;;2.15;;
35797;SDS011;21918;49.940;7.774;2023-08-06T04:37:13;2.50;;;2.05;;
35797;SDS011;21918;49.940;7.774;2023-08-06T04:39:40;2.08;;;1.60;;
35797;SDS011;21918;49.940;7.774;2023-08-06T04:42:07;4.05;;;2.35;;
35797;SDS011;21918;49.940;7.774;2023-08-06T04:44:33;2.10;;;1.90;;
35797;SDS011;21918;49.940;7.774;2023-08-06T04:47:00;3.88;;;2.13;;
35797;SDS011;21918;49.940;7.774;2023-08-06T04:49:28;2.03;;;1.83;;
35797;SDS011;21918;49.940;7.774;2023-08-06T04:51:55;2.63;;;2.42;;
35797;SDS011;21918;49.940;7.774;2023-08-06T04:54:22;2.30;;;1.42;;
35797;SDS011;21918;49.940;7.774;2023-08-06T04:56:48;1.30;;;1.20;;
35797;SDS011;21918;49.940;7.774;2023-08-06T04:59:15;5.95;;;1.70;;
35797;SDS011;21918;49.940;7.774;2023-08-06T05:01:43;2.63;;;1.85;;
35797;SDS011;21918;49.940;7.774;2023-08-06T05:04:10;1.55;;;1.45;;
35797;SDS011;21918;49.940;7.774;2023-08-06T05:06:39;3.00;;;1.73;;
35797;SDS011;21918;49.940;7.774;2023-08-06T05:09:06;2.70;;;1.50;;
35797;SDS011;21918;49.940;7.774;2023-08-06T05:11:33;4.30;;;1.40;;
35797;SDS011;21918;49.940;7.774;2023-08-06T05:14:00;2.20;;;1.58;;
35797;SDS011;21918;49.940;7.774;2023-08-06T05:16:26;2.63;;;1.33;;
35797;SDS011;21918;49.940;7.774;2023-08-06T05:18:55;2.55;;;1.40;;
35797;SDS011;21918;49.940;7.774;2023-08-06T05:21:22;3.78;;;1.40;;
35797;SDS011;21918;49.940;7.774;2023-08-06T05:23:50;1.13;;;0.90;;
35797;SDS011;21918;49.940;7.774;2023-08-06T05:26:17;1.95;;;0.85;;
35797;SDS011;21918;49.940;7.774;2023-08-06T05:28:44;0.82;;;0.80;;
35797;SDS011;21918;49.940;7.774;2023-08-06T05:31:11;1.17;;;0.90;;
35797;SDS011;21918;49.940;7.774;2023-08-06T05:33:38;0.95;;;0.88;;
35797;SDS011;21918;49.940;7.774;2023-08-06T05:36:08;1.00;;;0.80;;
35797;SDS011;21918;49.940;7.774;2023-08-06T05:38:34;1.00;;;0.70;;
35797;SDS011;21918;49.940;7.774;2023-08-06T05:41:02;0.73;;;0.73;;
35797;SDS011;21918;49.940;7.774;2023-08-06T05:43:29;2.22;;;0.90;;
35797;SDS011;21918;49.940;7.774;2023-08-06T05:45:56;0.47;;;0.43;;
35797;SDS011;21918;49.940;7.774;2023-08-06T05:48:25;0.95;;;0.50;;
35797;SDS011;21918;49.940;7.774;2023-08-06T05:50:53;1.50;;;0.40;;
35797;SDS011;21918;49.940;7.774;2023-08-06T05:53:19;1.25;;;0.70;;
35797;SDS011;21918;49.940;7.774;2023-08-06T05:55:46;0.68;;;0.68;;
35797;SDS011;21918;49.940;7.774;2023-08-06T05:58:15;0.47;;;0.43;;
35797;SDS011;21918;49.940;7.774;2023-08-06T06:00:41;1.42;;;0.50;;
35797;SDS011;21918;49.940;7.774;2023-08-06T06:03:08;1.30;;;0.57;;
35797;SDS011;21918;49.940;7.774;2023-08-06T06:05:37;0.32;;;0.32;;
35797;SDS011;21918;49.940;7.774;2023-08-06T06:08:07;0.63;;;0.35;;
35797;SDS011;21918;49.940;7.774;2023-08-06T06:10:35;0.32;;;0.32;;
35797;SDS011;21918;49.940;7.774;2023-08-06T06:16:02;0.20;;;0.20;;
35797;SDS011;21918;49.940;7.774;2023-08-06T06:18:28;0.20;;;0.20;;
35797;SDS011;21918;49.940;7.774;2023-08-06T06:20:55;0.20;;;0.20;;
35797;SDS011;21918;49.940;7.774;2023-08-06T06:23:22;3.13;;;0.45;;
35797;SDS011;21918;49.940;7.774;2023-08-06T06:25:49;0.43;;;0.20;;
35797;SDS011;21918;49.940;7.774;2023-08-06T06:28:16;0.50;;;0.30;;
35797;SDS011;21918;49.940;7.774;2023-08-06T06:30:44;0.20;;;0.20;;
35797;SDS011;21918;49.940;7.774;2023-08-06T06:35:50;0.10;;;0.10;;
35797;SDS011;21918;49.940;7.774;2023-08-06T06:38:16;0.20;;;0.20;;
35797;SDS011;21918;49.940;7.774;2023-08-06T06:40:43;0.20;;;0.20;;
35797;SDS011;21918;49.940;7.774;2023-08-06T06:43:10;4.97;;;0.43;;
35797;SDS011;21918;49.940;7.774;2023-08-06T06:45:36;0.20;;;0.20;;
35797;SDS011;21918;49.940;7.774;2023-08-06T06:48:05;0.35;;;0.35;;
35797;SDS011;21918;49.940;7.774;2023-08-06T06:50:31;0.20;;;0.20;;
35797;SDS011;21918;49.940;7.774;2023-08-06T06:52:58;0.20;;;0.20;;
35797;SDS011;21918;49.940;7.774;2023-08-06T06:55:26;0.32;;;0.13;;
35797;SDS011;21918;49.940;7.774;2023-08-06T06:57:53;0.22;;;0.22;;
35797;SDS011;21918;49.940;7.774;2023-08-06T07:00:19;0.47;;;0.30;;
35797;SDS011;21918;49.940;7.774;2023-08-06T07:02:46;0.30;;;0.30;;
35797;SDS011;21918;49.940;7.774;2023-08-06T07:05:14;0.75;;;0.30;;
35797;SDS011;21918;49.940;7.774;2023-08-06T07:07:40;0.73;;;0.20;;
35797;SDS011;21918;49.940;7.774;2023-08-06T07:10:07;0.40;;;0.30;;
35797;SDS011;21918;49.940;7.774;2023-08-06T07:12:34;0.30;;;0.30;;
35797;SDS011;21918;49.940;7.774;2023-08-06T07:15:02;0.30;;;0.30;;
35797;SDS011;21918;49.940;7.774;2023-08-06T07:17:32;0.35;;;0.35;;
35797;SDS011;21918;49.940;7.774;2023-08-06T07:19:59;1.98;;;0.52;;
35797;SDS011;21918;49.940;7.774;2023-08-06T07:22:26;0.70;;;0.40;;
35797;SDS011;21918;49.940;7.774;2023-08-06T07:24:56;1.10;;;0.63;;
35797;SDS011;21918;49.940;7.774;2023-08-06T07:27:22;0.63;;;0.57;;
35797;SDS011;21918;49.940;7.774;2023-08-06T07:29:49;0.30;;;0.30;;
35797;SDS011;21918;49.940;7.774;2023-08-06T07:32:16;0.95;;;0.57;;
35797;SDS011;21918;49.940;7.774;2023-08-06T07:34:44;0.55;;;0.50;;
35797;SDS011;21918;49.940;7.774;2023-08-06T07:37:11;0.60;;;0.52;;
35797;SDS011;21918;49.940;7.774;2023-08-06T07:39:39;0.90;;;0.40;;
35797;SDS011;21918;49.940;7.774;2023-08-06T07:42:07;1.67;;;0.40;;
35797;SDS011;21918;49.940;7.774;2023-08-06T07:44:33;0.40;;;0.40;;
35797;SDS011;21918;49.940;7.774;2023-08-06T07:47:00;0.75;;;0.38;;
35797;SDS011;21918;49.940;7.774;2023-08-06T07:49:26;0.82;;;0.82;;
35797;SDS011;21918;49.940;7.774;2023-08-06T07:51:53;0.90;;;0.80;;
35797;SDS011;21918;49.940;7.774;2023-08-06T07:54:19;0.70;;;0.68;;
35797;SDS011;21918;49.940;7.774;2023-08-06T07:56:47;0.63;;;0.50;;
35797;SDS011;21918;49.940;7.774;2023-08-06T07:59:14;0.57;;;0.40;;
35797;SDS011;21918;49.940;7.774;2023-08-06T08:01:40;0.40;;;0.40;;
35797;SDS011;21918;49.940;7.774;2023-08-06T08:04:07;0.65;;;0.50;;
35797;SDS011;21918;49.940;7.774;2023-08-06T08:06:33;1.05;;;0.85;;
35797;SDS011;21918;49.940;7.774;2023-08-06T08:09:00;0.60;;;0.60;;
35797;SDS011;21918;49.940;7.774;2023-08-06T08:11:29;0.47;;;0.47;;
35797;SDS011;21918;49.940;7.774;2023-08-06T08:13:57;1.42;;;0.63;;
35797;SDS011;21918;49.940;7.774;2023-08-06T08:16:24;1.67;;;0.60;;
35797;SDS011;21918;49.940;7.774;2023-08-06T08:18:50;0.50;;;0.50;;
35797;SDS011;21918;49.940;7.774;2023-08-06T08:21:19;0.40;;;0.40;;
35797;SDS011;21918;49.940;7.774;2023-08-06T08:23:45;0.60;;;0.35;;
35797;SDS011;21918;49.940;7.774;2023-08-06T08:26:12;0.38;;;0.38;;
35797;SDS011;21918;49.940;7.774;2023-08-06T08:28:38;0.32;;;0.32;;
35797;SDS011;21918;49.940;7.774;2023-08-06T08:31:09;0.35;;;0.35;;
35797;SDS011;21918;49.940;7.774;2023-08-06T08:33:36;1.35;;;0.47;;
35797;SDS011;21918;49.940;7.774;2023-08-06T08:36:05;0.52;;;0.52;;
35797;SDS011;21918;49.940;7.774;2023-08-06T08:38:34;0.95;;;0.52;;
35797;SDS011;21918;49.940;7.774;2023-08-06T08:41:01;0.20;;;0.20;;
35797;SDS011;21918;49.940;7.774;2023-08-06T08:43:28;0.45;;;0.38;;
35797;SDS011;21918;49.940;7.774;2023-08-06T08:45:56;0.55;;;0.55;;
35797;SDS011;21918;49.940;7.774;2023-08-06T08:48:25;0.47;;;0.47;;
35797;SDS011;21918;49.940;7.774;2023-08-06T08:50:54;0.98;;;0.40;;
35797;SDS011;21918;49.940;7.774;2023-08-06T08:53:22;0.60;;;0.47;;
35797;SDS011;21918;49.940;7.774;2023-08-06T08:55:49;0.25;;;0.25;;
35797;SDS011;21918;49.940;7.774;2023-08-06T08:58:16;0.30;;;0.30;;
35797;SDS011;21918;49.940;7.774;2023-08-06T09:00:43;0.30;;;0.30;;
35797;SDS011;21918;49.940;7.774;2023-08-06T09:03:13;0.95;;;0.90;;
35797;SDS011;21918;49.940;7.774;2023-08-06T09:05:43;1.75;;;0.40;;
35797;SDS011;21918;49.940;7.774;2023-08-06T09:08:11;1.08;;;0.50;;
35797;SDS011;21918;49.940;7.774;2023-08-06T09:10:41;0.40;;;0.40;;
35797;SDS011;21918;49.940;7.774;2023-08-06T09:13:09;0.40;;;0.40;;
35797;SDS011;21918;49.940;7.774;2023-08-06T09:15:37;0.85;;;0.50;;
35797;SDS011;21918;49.940;7.774;2023-08-06T09:18:08;2.75;;;0.50;;
35797;SDS011;21918;49.940;7.774;2023-08-06T09:20:38;0.20;;;0.20;;
35797;SDS011;21918;49.940;7.774;2023-08-06T09:23:09;0.40;;;0.40;;
35797;SDS011;21918;49.940;7.774;2023-08-06T09:25:37;0.10;;;0.10;;
35797;SDS011;21918;49.940;7.774;2023-08-06T09:28:05;0.20;;;0.20;;
35797;SDS011;21918;49.940;7.774;2023-08-06T09:30:33;1.63;;;0.40;;
35797;SDS011;21918;49.940;7.774;2023-08-06T09:33:01;1.45;;;0.47;;
35797;SDS011;21918;49.940;7.774;2023-08-06T09:35:28;0.50;;;0.30;;
35797;SDS011;21918;49.940;7.774;2023-08-06T09:37:55;0.35;;;0.35;;
35797;SDS011;21918;49.940;7.774;2023-08-06T09:40:29;0.20;;;0.20;;
35797;SDS011;21918;49.940;7.774;2023-08-06T09:42:57;0.65;;;0.28;;
35797;SDS011;21918;49.940;7.774;2023-08-06T09:45:28;1.63;;;0.50;;
35797;SDS011;21918;49.940;7.774;2023-08-06T09:47:57;2.08;;;0.40;;
35797;SDS011;21918;49.940;7.774;2023-08-06T09:50:26;0.25;;;0.25;;
35797;SDS011;21918;49.940;7.774;2023-08-06T09:52:56;0.45;;;0.20;;
35797;SDS011;21918;49.940;7.774;2023-08-06T09:55:24;0.93;;;0.50;;
35797;SDS011;21918;49.940;7.774;2023-08-06T09:57:52;1.23;;;0.57;;
35797;SDS011;21918;49.940;7.774;2023-08-06T10:00:19;0.28;;;0.28;;
35797;SDS011;21918;49.940;7.774;2023-08-06T10:02:46;0.20;;;0.20;;
35797;SDS011;21918;49.940;7.774;2023-08-06T10:05:14;0.15;;;0.15;;
35797;SDS011;21918;49.940;7.774;2023-08-06T10:07:42;0.20;;;0.20;;
35797;SDS011;21918;49.940;7.774;2023-08-06T10:10:10;0.20;;;0.20;;
35797;SDS011;21918;49.940;7.774;2023-08-06T10:12:37;1.30;;;0.20;;
35797;SDS011;21918;49.940;7.774;2023-08-06T10:15:10;1.85;;;0.25;;
35797;SDS011;21918;49.940;7.774;2023-08-06T10:17:40;0.10;;;0.10;;
35797;SDS011;21918;49.940;7.774;2023-08-06T10:20:12;0.20;;;0.20;;
35797;SDS011;21918;49.940;7.774;2023-08-06T10:22:42;0.10;;;0.10;;
35797;SDS011;21918;49.940;7.774;2023-08-06T10:25:15;1.13;;;0.65;;
35797;SDS011;21918;49.940;7.774;2023-08-06T10:27:53;0.50;;;0.50;;
35797;SDS011;21918;49.940;7.774;2023-08-06T10:30:27;0.40;;;0.30;;
35797;SDS011;21918;49.940;7.774;2023-08-06T10:32:55;0.75;;;0.40;;
35797;SDS011;21918;49.940;7.774;2023-08-06T10:35:28;0.77;;;0.40;;
35797;SDS011;21918;49.940;7.774;2023-08-06T10:37:58;1.45;;;0.73;;
35797;SDS011;21918;49.940;7.774;2023-08-06T10:40:25;0.50;;;0.35;;
35797;SDS011;21918;49.940;7.774;2023-08-06T10:42:52;0.52;;;0.45;;
35797;SDS011;21918;49.940;7.774;2023-08-06T10:45:18;0.20;;;0.20;;
35797;SDS011;21918;49.940;7.774;2023-08-06T10:47:47;0.20;;;0.20;;
35797;SDS011;21918;49.940;7.774;2023-08-06T10:50:14;0.40;;;0.30;;
35797;SDS011;21918;49.940;7.774;2023-08-06T10:52:43;0.35;;;0.35;;
35797;SDS011;21918;49.940;7.774;2023-08-06T10:55:14;0.47;;;0.47;;
35797;SDS011;21918;49.940;7.774;2023-08-06T10:57:48;0.60;;;0.40;;
35797;SDS011;21918;49.940;7.774;2023-08-06T11:00:14;0.40;;;0.40;;
35797;SDS011;21918;49.940;7.774;2023-08-06T11:02:42;0.20;;;0.20;;
35797;SDS011;21918;49.940;7.774;2023-08-06T11:05:13;0.38;;;0.35;;
35797;SDS011;21918;49.940;7.774;2023-08-06T11:07:39;1.13;;;0.50;;
35797;SDS011;21918;49.940;7.774;2023-08-06T11:10:06;3.20;;;0.30;;
35797;SDS011;21918;49.940;7.774;2023-08-06T11:12:34;0.60;;;0.60;;
35797;SDS011;21918;49.940;7.774;2023-08-06T11:15:02;0.88;;;0.47;;
35797;SDS011;21918;49.940;7.774;2023-08-06T11:17:30;0.50;;;0.50;;
35797;SDS011;21918;49.940;7.774;2023-08-06T11:19:58;0.30;;;0.30;;
35797;SDS011;21918;49.940;7.774;2023-08-06T11:22:27;0.57;;;0.57;;
35797;SDS011;21918;49.940;7.774;2023-08-06T11:24:53;0.45;;;0.40;;
35797;SDS011;21918;49.940;7.774;2023-08-06T11:27:21;0.60;;;0.60;;
35797;SDS011;21918;49.940;7.774;2023-08-06T11:29:48;0.70;;;0.50;;
35797;SDS011;21918;49.940;7.774;2023-08-06T11:32:14;0.52;;;0.52;;
35797;SDS011;21918;49.940;7.774;2023-08-06T11:34:43;1.33;;;0.93;;
35797;SDS011;21918;49.940;7.774;2023-08-06T11:37:13;1.05;;;0.47;;
35797;SDS011;21918;49.940;7.774;2023-08-06T11:39:47;0.30;;;0.30;;
35797;SDS011;21918;49.940;7.774;2023-08-06T11:42:14;0.50;;;0.50;;
35797;SDS011;21918;49.940;7.774;2023-08-06T11:44:41;2.53;;;1.00;;
35797;SDS011;21918;49.940;7.774;2023-08-06T11:47:11;1.30;;;1.20;;
35797;SDS011;21918;49.940;7.774;2023-08-06T11:49:40;0.90;;;0.90;;
35797;SDS011;21918;49.940;7.774;2023-08-06T11:52:10;1.20;;;1.00;;
35797;SDS011;21918;49.940;7.774;2023-08-06T11:54:39;1.20;;;0.68;;
35797;SDS011;21918;49.940;7.774;2023-08-06T11:57:07;0.80;;;0.65;;
35797;SDS011;21918;49.940;7.774;2023-08-06T11:59:37;0.93;;;0.80;;
35797;SDS011;21918;49.940;7.774;2023-08-06T12:02:04;1.25;;;0.90;;
35797;SDS011;21918;49.940;7.774;2023-08-06T12:04:31;0.80;;;0.60;;
35797;SDS011;21918;49.940;7.774;2023-08-06T12:07:17;2.13;;;0.70;;
35797;SDS011;21918;49.940;7.774;2023-08-06T12:09:43;1.10;;;1.02;;
35797;SDS011;21918;49.940;7.774;2023-08-06T12:12:13;0.90;;;0.85;;
35797;SDS011;21918;49.940;7.774;2023-08-06T12:14:39;1.30;;;1.00;;
35797;SDS011;21918;49.940;7.774;2023-08-06T12:17:06;1.48;;;0.77;;
35797;SDS011;21918;49.940;7.774;2023-08-06T12:19:36;1.52;;;0.75;;
35797;SDS011;21918;49.940;7.774;2023-08-06T12:22:02;0.95;;;0.70;;
35797;SDS011;21918;49.940;7.774;2023-08-06T12:24:29;1.10;;;0.82;;
35797;SDS011;21918;49.940;7.774;2023-08-06T12:26:57;1.30;;;0.95;;
35797;SDS011;21918;49.940;7.774;2023-08-06T12:29:25;1.90;;;0.70;;
35797;SDS011;21918;49.940;7.774;2023-08-06T12:31:52;3.17;;;1.48;;
35797;SDS011;21918;49.940;7.774;2023-08-06T12:34:18;6.38;;;1.65;;
35797;SDS011;21918;49.940;7.774;2023-08-06T12:36:45;1.60;;;0.57;;
35797;SDS011;21918;49.940;7.774;2023-08-06T12:39:12;2.53;;;1.00;;
35797;SDS011;21918;49.940;7.774;2023-08-06T12:41:38;3.13;;;1.33;;
35797;SDS011;21918;49.940;7.774;2023-08-06T12:44:05;2.47;;;1.00;;
35797;SDS011;21918;49.940;7.774;2023-08-06T12:46:33;10.93;;;2.72;;
35797;SDS011;21918;49.940;7.774;2023-08-06T12:49:00;1.52;;;0.85;;
35797;SDS011;21918;49.940;7.774;2023-08-06T12:51:27;5.45;;;1.70;;
35797;SDS011;21918;49.940;7.774;2023-08-06T12:53:53;15.88;;;3.13;;
35797;SDS011;21918;49.940;7.774;2023-08-06T12:56:20;2.45;;;1.08;;
35797;SDS011;21918;49.940;7.774;2023-08-06T12:58:46;3.60;;;1.70;;
35797;SDS011;21918;49.940;7.774;2023-08-06T13:01:13;3.05;;;1.00;;
35797;SDS011;21918;49.940;7.774;2023-08-06T13:03:43;6.82;;;1.63;;
35797;SDS011;21918;49.940;7.774;2023-08-06T13:06:10;1.15;;;0.95;;
35797;SDS011;21918;49.940;7.774;2023-08-06T13:08:38;4.97;;;1.50;;
35797;SDS011;21918;49.940;7.774;2023-08-06T13:11:05;6.13;;;1.13;;
35797;SDS011;21918;49.940;7.774;2023-08-06T13:13:32;13.20;;;1.80;;
35797;SDS011;21918;49.940;7.774;2023-08-06T13:15:58;1.95;;;0.43;;
35797;SDS011;21918;49.940;7.774;2023-08-06T13:18:25;1.75;;;0.98;;
35797;SDS011;21918;49.940;7.774;2023-08-06T13:20:54;2.63;;;0.50;;
35797;SDS011;21918;49.940;7.774;2023-08-06T13:23:21;1.50;;;0.98;;
35797;SDS011;21918;49.940;7.774;2023-08-06T13:25:47;2.35;;;0.65;;
35797;SDS011;21918;49.940;7.774;2023-08-06T13:28:14;1.48;;;1.05;;
35797;SDS011;21918;49.940;7.774;2023-08-06T13:30:43;0.50;;;0.50;;
35797;SDS011;21918;49.940;7.774;2023-08-06T13:33:10;0.45;;;0.30;;
35797;SDS011;21918;49.940;7.774;2023-08-06T13:35:38;0.47;;;0.47;;
35797;SDS011;21918;49.940;7.774;2023-08-06T13:38:06;2.50;;;0.50;;
35797;SDS011;21918;49.940;7.774;2023-08-06T13:40:33;0.63;;;0.52;;
35797;SDS011;21918;49.940;7.774;2023-08-06T13:43:00;2.55;;;0.30;;
35797;SDS011;21918;49.940;7.774;2023-08-06T13:45:27;3.72;;;0.45;;
35797;SDS011;21918;49.940;7.774;2023-08-06T13:47:54;0.43;;;0.43;;
35797;SDS011;21918;49.940;7.774;2023-08-06T13:50:22;0.30;;;0.30;;
35797;SDS011;21918;49.940;7.774;2023-08-06T13:52:50;0.75;;;0.63;;
35797;SDS011;21918;49.940;7.774;2023-08-06T13:55:19;1.73;;;0.50;;
35797;SDS011;21918;49.940;7.774;2023-08-06T13:57:46;0.82;;;0.50;;
35797;SDS011;21918;49.940;7.774;2023-08-06T14:00:14;0.45;;;0.35;;
35797;SDS011;21918;49.940;7.774;2023-08-06T14:02:41;0.35;;;0.35;;
35797;SDS011;21918;49.940;7.774;2023-08-06T14:05:09;0.57;;;0.38;;
35797;SDS011;21918;49.940;7.774;2023-08-06T14:07:35;0.30;;;0.25;;
35797;SDS011;21918;49.940;7.774;2023-08-06T14:10:02;0.20;;;0.20;;
35797;SDS011;21918;49.940;7.774;2023-08-06T14:12:31;0.30;;;0.30;;
35797;SDS011;21918;49.940;7.774;2023-08-06T14:14:59;0.43;;;0.40;;
35797;SDS011;21918;49.940;7.774;2023-08-06T14:17:28;0.13;;;0.13;;
35797;SDS011;21918;49.940;7.774;2023-08-06T14:19:55;1.02;;;0.30;;
35797;SDS011;21918;49.940;7.774;2023-08-06T14:22:22;0.10;;;0.10;;
35797;SDS011;21918;49.940;7.774;2023-08-06T14:24:49;2.08;;;0.43;;
35797;SDS011;21918;49.940;7.774;2023-08-06T14:27:16;0.20;;;0.20;;
35797;SDS011;21918;49.940;7.774;2023-08-06T14:29:44;0.30;;;0.28;;
35797;SDS011;21918;49.940;7.774;2023-08-06T14:32:11;0.28;;;0.28;;
35797;SDS011;21918;49.940;7.774;2023-08-06T14:34:37;2.78;;;0.55;;
35797;SDS011;21918;49.940;7.774;2023-08-06T14:37:04;1.50;;;0.60;;
35797;SDS011;21918;49.940;7.774;2023-08-06T14:39:30;0.57;;;0.30;;
35797;SDS011;21918;49.940;7.774;2023-08-06T14:41:57;0.20;;;0.20;;
35797;SDS011;21918;49.940;7.774;2023-08-06T14:44:23;0.30;;;0.30;;
35797;SDS011;21918;49.940;7.774;2023-08-06T14:46:51;0.55;;;0.25;;
35797;SDS011;21918;49.940;7.774;2023-08-06T14:49:18;0.88;;;0.30;;
35797;SDS011;21918;49.940;7.774;2023-08-06T14:51:45;0.43;;;0.40;;
35797;SDS011;21918;49.940;7.774;2023-08-06T14:54:11;0.30;;;0.30;;
35797;SDS011;21918;49.940;7.774;2023-08-06T14:56:38;0.28;;;0.28;;
35797;SDS011;21918;49.940;7.774;2023-08-06T14:59:04;0.93;;;0.20;;
35797;SDS011;21918;49.940;7.774;2023-08-06T15:01:31;1.77;;;0.38;;
35797;SDS011;21918;49.940;7.774;2023-08-06T15:03:59;0.57;;;0.20;;
35797;SDS011;21918;49.940;7.774;2023-08-06T15:06:25;0.40;;;0.30;;
35797;SDS011;21918;49.940;7.774;2023-08-06T15:08:52;0.40;;;0.30;;
35797;SDS011;21918;49.940;7.774;2023-08-06T15:11:23;0.20;;;0.20;;
35797;SDS011;21918;49.940;7.774;2023-08-06T15:13:50;0.77;;;0.40;;
35797;SDS011;21918;49.940;7.774;2023-08-06T15:16:17;0.38;;;0.30;;
35797;SDS011;21918;49.940;7.774;2023-08-06T15:18:44;0.20;;;0.20;;
35797;SDS011;21918;49.940;7.774;2023-08-06T15:21:12;0.20;;;0.20;;
35797;SDS011;21918;49.940;7.774;2023-08-06T15:23:38;1.55;;;0.30;;